createdAt,value
2023-03-06T00:00:44.744Z,94566.14
2023-03-06T00:03:19.485Z,94561.09
2023-03-06T00:05:47.942Z,94567.02
2023-03-06T00:08:16.466Z,94560.44
2023-03-06T00:10:44.736Z,94561.98
2023-03-06T00:13:15.172Z,94561.00
2023-03-06T00:15:43.414Z,94567.14
2023-03-06T00:18:12.253Z,94566.70
2023-03-06T00:20:41.915Z,94565.95
2023-03-06T00:23:11.289Z,94562.10
2023-03-06T00:25:43.708Z,94558.48
2023-03-06T00:28:12.576Z,94559.73
2023-03-06T00:30:41.568Z,94559.18
2023-03-06T00:33:10.024Z,94553.84
2023-03-06T00:35:42.166Z,94562.70
2023-03-06T00:38:13.380Z,94560.86
2023-03-06T00:40:41.556Z,94563.55
2023-03-06T00:43:09.922Z,94561.54
2023-03-06T00:45:38.525Z,94561.73
2023-03-06T00:48:06.820Z,94568.11
2023-03-06T00:50:35.557Z,94567.60
2023-03-06T00:53:03.808Z,94568.14
2023-03-06T00:55:33.668Z,94571.77
2023-03-06T00:58:02.050Z,94572.52
2023-03-06T01:00:30.429Z,94570.15
2023-03-06T01:02:58.669Z,94568.52
2023-03-06T01:05:26.844Z,94569.57
2023-03-06T01:07:54.962Z,94565.14
2023-03-06T01:10:23.391Z,94567.62
2023-03-06T01:12:51.508Z,94564.96
2023-03-06T01:15:20.688Z,94565.04
2023-03-06T01:17:53.531Z,94563.64
2023-03-06T01:20:22.173Z,94564.39
2023-03-06T01:22:50.912Z,94563.58
2023-03-06T01:25:19.240Z,94561.75
2023-03-06T01:27:47.428Z,94563.44
2023-03-06T01:30:15.694Z,94563.61
2023-03-06T01:32:43.920Z,94560.34
2023-03-06T01:35:13.042Z,94564.34
2023-03-06T01:37:41.226Z,94561.39
2023-03-06T01:40:11.588Z,94566.35
2023-03-06T01:42:40.016Z,94563.04
2023-03-06T01:45:14.213Z,94561.77
2023-03-06T01:47:42.394Z,94563.25
2023-03-06T01:50:12.028Z,94564.51
2023-03-06T01:52:50.271Z,94561.91
2023-03-06T01:55:26.389Z,94557.77
2023-03-06T01:57:57.989Z,94558.39
2023-03-06T02:00:29.068Z,94556.59
2023-03-06T02:03:11.525Z,94556.34
2023-03-06T02:05:40.966Z,94557.92
2023-03-06T02:08:12.611Z,94556.97
2023-03-06T02:11:20.855Z,94564.38
2023-03-06T02:13:50.841Z,94562.54
2023-03-06T02:16:23.918Z,94560.70
2023-03-06T02:18:53.356Z,94556.66
2023-03-06T02:21:32.078Z,94558.66
2023-03-06T02:24:14.760Z,94560.25
2023-03-06T02:26:45.348Z,94559.85
2023-03-06T02:29:19.383Z,94561.30
2023-03-06T02:31:47.513Z,94558.80
2023-03-06T02:34:15.577Z,94568.86
2023-03-06T02:37:09.051Z,94571.45
2023-03-06T02:39:44.234Z,94572.33
2023-03-06T02:42:18.701Z,94571.58
2023-03-06T02:44:48.547Z,94567.24
2023-03-06T02:47:16.745Z,94563.87
2023-03-06T02:49:45.274Z,94571.39
2023-03-06T02:52:13.648Z,94574.92
2023-03-06T02:54:42.746Z,94580.14
2023-03-06T02:57:11.485Z,94571.33
2023-03-06T02:59:39.748Z,94575.67
2023-03-06T03:02:07.846Z,94580.32
2023-03-06T03:04:36.057Z,94577.45
2023-03-06T03:07:04.331Z,94571.23
2023-03-06T03:09:37.097Z,94576.68
2023-03-06T03:12:06.910Z,94575.89
2023-03-06T03:14:35.389Z,94576.13
2023-03-06T03:17:04.280Z,94578.84
2023-03-06T03:19:32.711Z,94579.42
2023-03-06T03:22:00.980Z,94578.48
2023-03-06T03:24:29.387Z,94575.81
2023-03-06T03:26:57.936Z,94576.73
2023-03-06T03:29:26.398Z,94582.64
2023-03-06T03:31:54.750Z,94581.02
2023-03-06T03:34:25.554Z,94578.98
2023-03-06T03:36:54.965Z,94573.97
2023-03-06T03:39:23.155Z,94578.38
2023-03-06T03:41:51.314Z,94572.32
2023-03-06T03:44:20.788Z,94578.08
2023-03-06T03:46:49.407Z,94582.98
2023-03-06T03:49:20.675Z,94585.38
2023-03-06T03:51:49.578Z,94576.67
2023-03-06T03:54:18.158Z,94578.38
2023-03-06T03:56:47.569Z,94580.38
2023-03-06T03:59:21.083Z,94581.09
2023-03-06T04:02:25.647Z,94582.23
2023-03-06T04:05:01.173Z,94584.41
2023-03-06T04:07:29.491Z,94582.05
2023-03-06T04:09:57.616Z,94581.54
2023-03-06T04:12:26.013Z,94583.61
2023-03-06T04:14:54.225Z,94581.47
2023-03-06T04:17:23.396Z,94582.98
2023-03-06T04:19:52.498Z,94582.95
2023-03-06T04:22:20.709Z,94581.49
2023-03-06T04:24:50.084Z,94580.98
2023-03-06T04:27:18.793Z,94583.17
2023-03-06T04:29:47.234Z,94588.20
2023-03-06T04:32:15.886Z,94582.45
2023-03-06T04:34:44.063Z,94583.72
2023-03-06T04:37:20.677Z,94584.25
2023-03-06T04:39:49.922Z,94584.62
2023-03-06T04:42:18.677Z,94585.63
2023-03-06T04:44:46.900Z,94586.87
2023-03-06T04:47:15.856Z,94582.41
2023-03-06T04:49:45.252Z,94582.65
2023-03-06T04:52:13.544Z,94583.96
2023-03-06T04:54:43.009Z,94591.73
2023-03-06T04:57:11.247Z,94590.56
2023-03-06T04:59:39.414Z,94590.28
2023-03-06T05:02:07.745Z,94595.02
2023-03-06T05:04:35.892Z,94594.71
2023-03-06T05:07:04.268Z,94591.61
2023-03-06T05:09:34.281Z,94592.55
2023-03-06T05:12:03.547Z,94600.52
2023-03-06T05:14:31.880Z,94594.25
2023-03-06T05:17:00.228Z,94605.23
2023-03-06T05:19:28.365Z,94605.39
2023-03-06T05:21:56.560Z,94609.98
2023-03-06T05:24:24.731Z,94608.62
2023-03-06T05:26:53.142Z,94608.71
2023-03-06T05:29:21.450Z,94608.11
2023-03-06T05:31:49.653Z,94608.76
2023-03-06T05:34:18.105Z,94614.60
2023-03-06T05:36:47.443Z,94610.83
2023-03-06T05:39:15.631Z,94615.36
2023-03-06T05:41:43.776Z,94612.16
2023-03-06T05:44:15.228Z,94623.49
2023-03-06T05:46:43.358Z,94622.20
2023-03-06T05:49:13.578Z,94620.13
2023-03-06T05:51:44.098Z,94624.64
2023-03-06T05:54:12.554Z,94621.18
2023-03-06T05:56:44.348Z,94611.00
2023-03-06T05:59:18.128Z,94615.56
2023-03-06T06:01:53.303Z,94615.71
2023-03-06T06:04:40.723Z,94615.02
2023-03-06T06:07:16.460Z,94612.21
2023-03-06T06:09:47.874Z,94616.48
2023-03-06T06:12:18.860Z,94615.78
2023-03-06T06:14:48.117Z,94618.48
2023-03-06T06:17:17.229Z,94613.68
2023-03-06T06:19:45.737Z,94619.45
2023-03-06T06:22:14.010Z,94616.16
2023-03-06T06:24:42.269Z,94606.55
2023-03-06T06:27:11.609Z,94608.84
2023-03-06T06:29:39.730Z,94612.28
2023-03-06T06:32:08.412Z,94612.95
2023-03-06T06:34:36.876Z,94616.28
2023-03-06T06:37:05.512Z,94613.38
2023-03-06T06:39:33.745Z,94618.40
2023-03-06T06:42:28.312Z,94621.16
2023-03-06T06:44:55.482Z,94611.35
2023-03-06T06:47:30.492Z,94611.91
2023-03-06T06:50:10.547Z,94612.69
2023-03-06T06:52:43.176Z,94620.88
2023-03-06T06:55:22.888Z,94615.48
2023-03-06T06:57:55.621Z,94612.67
2023-03-06T07:00:26.058Z,94609.16
2023-03-06T07:03:06.390Z,94607.33
2023-03-06T07:05:37.249Z,94612.13
2023-03-06T07:08:08.047Z,94615.80
2023-03-06T07:10:39.542Z,94618.13
2023-03-06T07:13:08.600Z,94621.94
2023-03-06T07:15:37.182Z,94624.14
2023-03-06T07:18:22.359Z,94623.23
2023-03-06T07:20:51.385Z,94624.98
2023-03-06T07:23:20.206Z,94627.04
2023-03-06T07:25:52.535Z,94630.67
2023-03-06T07:28:22.116Z,94625.63
2023-03-06T07:31:00.284Z,94626.53
2023-03-06T07:33:29.210Z,94628.54
2023-03-06T07:35:58.372Z,94630.56
2023-03-06T07:38:26.774Z,94628.33
2023-03-06T07:40:55.174Z,94628.00
2023-03-06T07:43:23.657Z,94630.79
2023-03-06T07:45:59.373Z,94627.86
2023-03-06T07:48:28.339Z,94626.59
2023-03-06T07:51:03.398Z,94622.44
2023-03-06T07:53:33.413Z,94621.55
2023-03-06T07:56:16.641Z,94624.84
2023-03-06T07:59:18.656Z,94624.49
2023-03-06T08:04:56.685Z,94625.91
2023-03-06T08:07:25.466Z,94628.55
2023-03-06T08:09:59.753Z,94632.10
2023-03-06T08:12:30.835Z,94632.14
2023-03-06T08:15:08.768Z,94632.17
2023-03-06T08:17:40.199Z,94627.58
2023-03-06T08:20:25.428Z,94631.38
2023-03-06T08:23:07.642Z,94629.27
2023-03-06T08:25:36.163Z,94630.56
2023-03-06T08:28:06.792Z,94627.70
2023-03-06T08:30:37.001Z,94630.28
2023-03-06T08:33:08.523Z,94628.30
2023-03-06T08:35:36.973Z,94635.96
2023-03-06T08:38:10.597Z,94630.39
2023-03-06T08:40:55.977Z,94636.69
2023-03-06T08:43:25.430Z,94639.75
2023-03-06T08:46:01.345Z,94642.40
2023-03-06T08:48:30.683Z,94644.95
2023-03-06T08:50:59.007Z,94644.01
2023-03-06T08:53:41.697Z,94646.01
2023-03-06T08:56:21.231Z,94652.90
2023-03-06T08:58:50.160Z,94655.98
2023-03-06T09:01:28.088Z,94656.23
2023-03-06T09:04:01.764Z,94651.09
2023-03-06T09:06:34.376Z,94653.30
2023-03-06T09:09:10.916Z,94657.38
2023-03-06T09:11:39.683Z,94651.06
2023-03-06T09:14:08.208Z,94657.77
2023-03-06T09:16:39.983Z,94658.85
2023-03-06T09:19:08.526Z,94658.36
2023-03-06T09:21:40.470Z,94662.04
2023-03-06T09:24:09.275Z,94666.60
2023-03-06T09:26:46.058Z,94666.10
2023-03-06T09:29:45.382Z,94666.39
2023-03-06T09:32:22.432Z,94662.61
2023-03-06T09:34:54.596Z,94664.36
2023-03-06T09:37:23.875Z,94665.04
2023-03-06T09:39:52.184Z,94663.16
2023-03-06T09:42:24.445Z,94667.41
2023-03-06T09:45:06.632Z,94667.16
2023-03-06T09:47:51.916Z,94668.59
2023-03-06T09:50:29.685Z,94664.64
2023-03-06T09:53:27.117Z,94670.31
2023-03-06T09:56:13.868Z,94667.73
2023-03-06T09:59:20.966Z,94662.61
2023-03-06T10:02:15.228Z,94664.20
2023-03-06T10:04:49.411Z,94664.12
2023-03-06T10:07:29.087Z,94660.49
2023-03-06T10:10:07.818Z,94656.99
2023-03-06T10:12:48.468Z,94664.44
2023-03-06T10:15:27.747Z,94664.84
2023-03-06T10:17:58.257Z,94654.98
2023-03-06T10:21:00.960Z,94659.06
2023-03-06T10:23:52.549Z,94658.09
2023-03-06T10:26:28.279Z,94655.69
2023-03-06T10:29:14.721Z,94654.32
2023-03-06T10:31:49.757Z,94654.27
2023-03-06T10:34:23.730Z,94654.15
2023-03-06T10:36:52.198Z,94647.22
2023-03-06T10:39:27.006Z,94647.45
2023-03-06T10:41:58.070Z,94650.19
2023-03-06T10:44:29.160Z,94643.23
2023-03-06T10:46:57.657Z,94641.45
2023-03-06T10:49:28.878Z,94638.55
2023-03-06T10:52:09.853Z,94631.05
2023-03-06T10:54:41.676Z,94627.27
2023-03-06T10:57:29.569Z,94619.94
2023-03-06T11:00:08.545Z,94610.17
2023-03-06T11:02:41.257Z,94602.58
2023-03-06T11:05:20.810Z,94593.83
2023-03-06T11:07:59.473Z,94587.02
2023-03-06T11:10:31.559Z,94588.02
2023-03-06T11:13:08.532Z,94573.95
2023-03-06T11:15:36.923Z,94573.00
2023-03-06T11:18:08.289Z,94572.16
2023-03-06T11:20:52.515Z,94575.63
2023-03-06T11:23:34.951Z,94574.67
2023-03-06T11:26:16.768Z,94565.67
2023-03-06T11:29:11.543Z,94563.35
2023-03-06T11:32:05.547Z,94562.31
2023-03-06T11:35:03.890Z,94561.40
2023-03-06T11:37:32.166Z,94562.27
2023-03-06T11:40:42.109Z,94560.38
2023-03-06T11:43:26.181Z,94556.44
2023-03-06T11:46:08.357Z,94560.52
2023-03-06T11:48:46.622Z,94559.50
2023-03-06T11:51:21.589Z,94554.77
2023-03-06T11:53:58.694Z,94548.91
2023-03-06T11:56:38.960Z,94547.64
2023-03-06T11:59:16.193Z,94546.23
2023-03-06T12:02:00.725Z,94544.40
2023-03-06T12:05:07.408Z,94541.06
2023-03-06T12:07:48.681Z,94536.44
2023-03-06T12:10:42.259Z,94534.09
2023-03-06T12:13:26.163Z,94525.63
2023-03-06T12:16:17.107Z,94526.92
2023-03-06T12:19:06.594Z,94531.09
2023-03-06T12:21:58.824Z,94529.18
2023-03-06T12:24:46.781Z,94529.09
2023-03-06T12:27:28.592Z,94537.31
2023-03-06T12:30:15.392Z,94535.98
2023-03-06T12:32:59.335Z,94531.24
2023-03-06T12:35:53.995Z,94530.23
2023-03-06T12:38:36.963Z,94520.95
2023-03-06T12:41:36.073Z,94519.17
2023-03-06T12:44:30.871Z,94520.03
2023-03-06T12:47:05.309Z,94520.63
2023-03-06T12:49:39.035Z,94513.94
2023-03-06T12:52:09.824Z,94510.80
2023-03-06T12:54:41.329Z,94509.31
2023-03-06T12:57:09.841Z,94508.97
2023-03-06T12:59:44.520Z,94509.52
2023-03-06T13:02:31.888Z,94510.13
2023-03-06T13:05:22.763Z,94502.63
2023-03-06T13:08:35.242Z,94503.89
2023-03-06T13:11:21.434Z,94499.35
2023-03-06T13:13:49.725Z,94498.84
2023-03-06T13:16:34.156Z,94495.39
2023-03-06T13:19:23.413Z,94489.55
2023-03-06T13:21:54.638Z,94489.71
2023-03-06T13:24:31.513Z,94493.32
2023-03-06T13:27:08.979Z,94490.96
2023-03-06T13:29:37.169Z,94490.65
2023-03-06T13:32:14.336Z,94486.34
2023-03-06T13:34:50.152Z,94479.77
2023-03-06T13:37:23.305Z,94476.65
2023-03-06T13:40:00.679Z,94475.41
2023-03-06T13:42:35.352Z,94469.48
2023-03-06T13:45:17.403Z,94464.07
2023-03-06T13:48:15.524Z,94467.69
2023-03-06T13:50:43.149Z,94464.09
2023-03-06T13:53:33.059Z,94462.15
2023-03-06T13:56:22.952Z,94456.89
2023-03-06T13:59:22.078Z,94449.92
2023-03-06T14:02:10.548Z,94445.30
2023-03-06T14:04:56.260Z,94445.45
2023-03-06T14:07:29.774Z,94441.64
2023-03-06T14:10:13.381Z,94438.65
2023-03-06T14:13:01.079Z,94440.16
2023-03-06T14:15:41.272Z,94441.08
2023-03-06T14:18:18.645Z,94438.89
2023-03-06T14:21:02.100Z,94441.70
2023-03-06T14:23:45.980Z,94443.11
2023-03-06T14:26:19.403Z,94441.89
2023-03-06T14:29:00.271Z,94443.30
2023-03-06T14:31:32.077Z,94443.93
2023-03-06T14:34:19.913Z,94442.96
2023-03-06T14:36:50.993Z,94437.80
2023-03-06T14:39:30.599Z,94441.18
2023-03-06T14:42:29.028Z,94436.73
2023-03-06T14:45:03.372Z,94436.86
2023-03-06T14:47:33.432Z,94434.25
2023-03-06T14:50:24.220Z,94435.48
2023-03-06T14:53:17.598Z,94435.26
2023-03-06T14:55:53.460Z,94440.63
2023-03-06T14:58:45.943Z,94445.79
2023-03-06T15:01:15.524Z,94450.09
2023-03-06T15:03:58.474Z,94447.08
2023-03-06T15:06:33.338Z,94443.45
2023-03-06T15:09:08.927Z,94443.10
2023-03-06T15:12:03.946Z,94435.54
2023-03-06T15:14:38.276Z,94435.25
2023-03-06T15:17:15.754Z,94436.52
2023-03-06T15:19:45.830Z,94436.63
2023-03-06T15:22:31.917Z,94434.20
2023-03-06T15:25:27.250Z,94435.45
2023-03-06T15:28:02.086Z,94432.21
2023-03-06T15:30:33.618Z,94432.58
2023-03-06T15:33:24.259Z,94431.92
2023-03-06T15:35:57.590Z,94435.27
2023-03-06T15:38:40.956Z,94433.80
2023-03-06T15:41:43.996Z,94435.44
2023-03-06T15:44:14.628Z,94430.88
2023-03-06T15:46:42.869Z,94425.88
2023-03-06T15:49:14.878Z,94426.20
2023-03-06T15:51:43.086Z,94420.66
2023-03-06T15:54:12.516Z,94422.77
2023-03-06T15:56:44.318Z,94420.45
2023-03-06T15:59:33.319Z,94423.38
2023-03-06T16:02:11.217Z,94426.90
2023-03-06T16:04:39.507Z,94422.53
2023-03-06T16:07:07.891Z,94424.77
2023-03-06T16:09:36.955Z,94426.58
2023-03-06T16:12:06.019Z,94425.98
2023-03-06T16:14:34.328Z,94426.21
2023-03-06T16:17:02.648Z,94425.58
2023-03-06T16:19:30.924Z,94426.33
2023-03-06T16:21:59.895Z,94424.30
2023-03-06T16:24:27.998Z,94423.86
2023-03-06T16:27:00.567Z,94421.98
2023-03-06T16:29:29.936Z,94422.91
2023-03-06T16:31:59.049Z,94426.02
2023-03-06T16:34:27.592Z,94426.23
2023-03-06T16:36:56.098Z,94421.39
2023-03-06T16:39:24.867Z,94420.95
2023-03-06T16:41:53.376Z,94417.84
2023-03-06T16:44:21.574Z,94417.05
2023-03-06T16:46:50.631Z,94411.62
2023-03-06T16:49:18.854Z,94410.20
2023-03-06T16:51:47.516Z,94410.70
2023-03-06T16:54:15.749Z,94407.95
2023-03-06T16:56:53.894Z,94409.28
2023-03-06T16:59:22.231Z,94405.83
2023-03-06T17:01:50.438Z,94406.20
2023-03-06T17:04:18.671Z,94401.64
2023-03-06T17:06:47.010Z,94399.55
2023-03-06T17:09:15.285Z,94394.29
2023-03-06T17:11:46.936Z,94393.63
2023-03-06T17:14:15.562Z,94391.73
2023-03-06T17:16:44.004Z,94389.59
2023-03-06T17:19:17.173Z,94390.00
2023-03-06T17:21:45.625Z,94384.09
2023-03-06T17:24:13.818Z,94378.91
2023-03-06T17:26:43.355Z,94380.02
2023-03-06T17:29:12.255Z,94378.13
2023-03-06T17:31:40.517Z,94374.73
2023-03-06T17:34:08.947Z,94375.20
2023-03-06T17:36:37.070Z,94365.31
2023-03-06T17:39:06.190Z,94370.40
2023-03-06T17:41:34.567Z,94366.66
2023-03-06T17:44:03.132Z,94366.45
2023-03-06T17:46:34.937Z,94365.77
2023-03-06T17:49:03.198Z,94365.22
2023-03-06T17:51:31.342Z,94361.83
2023-03-06T17:53:59.583Z,94363.46
2023-03-06T17:56:27.864Z,94366.36
2023-03-06T17:58:57.114Z,94366.23
2023-03-06T18:01:30.295Z,94368.65
2023-03-06T18:03:58.686Z,94373.17
2023-03-06T18:06:30.281Z,94370.42
2023-03-06T18:08:58.587Z,94367.11
2023-03-06T18:11:27.128Z,94366.80
2023-03-06T18:13:55.350Z,94371.55
2023-03-06T18:16:25.978Z,94373.16
2023-03-06T18:18:56.515Z,94373.98
2023-03-06T18:21:25.047Z,94369.38
2023-03-06T18:23:53.812Z,94365.69
2023-03-06T18:26:24.772Z,94366.98
2023-03-06T18:29:03.611Z,94362.83
2023-03-06T18:31:35.073Z,94361.27
2023-03-06T18:34:07.350Z,94356.52
2023-03-06T18:36:36.544Z,94349.54
2023-03-06T18:39:09.759Z,94348.17
2023-03-06T18:41:38.495Z,94346.13
2023-03-06T18:44:06.984Z,94344.48
2023-03-06T18:46:37.909Z,94347.36
2023-03-06T18:49:06.617Z,94343.64
2023-03-06T18:51:35.338Z,94344.77
2023-03-06T18:54:06.769Z,94343.60
2023-03-06T18:56:35.029Z,94339.99
2023-03-06T18:59:05.568Z,94338.11
2023-03-06T19:01:35.000Z,94333.85
2023-03-06T19:04:04.806Z,94336.27
2023-03-06T19:06:33.053Z,94342.61
2023-03-06T19:09:02.305Z,94337.86
2023-03-06T19:11:32.289Z,94337.61
2023-03-06T19:14:00.962Z,94337.23
2023-03-06T19:16:31.329Z,94328.85
2023-03-06T19:18:59.654Z,94328.11
2023-03-06T19:21:28.859Z,94324.19
2023-03-06T19:23:58.221Z,94322.42
2023-03-06T19:26:28.220Z,94319.23
2023-03-06T19:28:56.631Z,94311.39
2023-03-06T19:31:27.291Z,94310.25
2023-03-06T19:33:56.925Z,94306.69
2023-03-06T19:36:28.982Z,94307.41
2023-03-06T19:38:59.129Z,94307.36
2023-03-06T19:41:28.271Z,94307.33
2023-03-06T19:43:59.329Z,94305.93
2023-03-06T19:46:27.700Z,94302.03
2023-03-06T19:48:58.934Z,94298.90
2023-03-06T19:51:27.853Z,94298.14
2023-03-06T19:53:57.671Z,94300.55
2023-03-06T19:56:29.216Z,94298.45
2023-03-06T19:58:57.943Z,94297.19
2023-03-06T20:01:27.821Z,94294.91
2023-03-06T20:03:59.472Z,94295.73
2023-03-06T20:06:31.220Z,94291.23
2023-03-06T20:09:02.012Z,94284.92
2023-03-06T20:11:31.072Z,94278.66
2023-03-06T20:14:01.287Z,94272.37
2023-03-06T20:16:30.381Z,94271.85
2023-03-06T20:19:00.795Z,94267.23
2023-03-06T20:21:31.411Z,94268.17
2023-03-06T20:23:59.898Z,94266.67
2023-03-06T20:26:29.162Z,94262.48
2023-03-06T20:28:58.037Z,94260.73
2023-03-06T20:31:29.991Z,94261.80
2023-03-06T20:33:59.627Z,94270.02
2023-03-06T20:36:30.898Z,94264.71
2023-03-06T20:39:00.693Z,94270.92
2023-03-06T20:41:30.451Z,94270.30
2023-03-06T20:44:00.986Z,94264.36
2023-03-06T20:46:30.793Z,94259.77
2023-03-06T20:48:59.688Z,94255.17
2023-03-06T20:51:39.195Z,94255.27
2023-03-06T20:54:10.310Z,94257.42
2023-03-06T20:56:40.006Z,94260.80
2023-03-06T20:59:10.974Z,94261.98
2023-03-06T21:01:41.875Z,94265.05
2023-03-06T21:04:14.085Z,94266.84
2023-03-06T21:06:46.776Z,94266.50
2023-03-06T21:09:17.091Z,94259.27
2023-03-06T21:11:46.409Z,94261.11
2023-03-06T21:14:15.309Z,94263.41
2023-03-06T21:16:44.817Z,94261.49
2023-03-06T21:19:13.350Z,94259.19
2023-03-06T21:21:41.801Z,94258.42
2023-03-06T21:24:09.977Z,94257.04
2023-03-06T21:26:38.097Z,94258.67
2023-03-06T21:29:06.404Z,94257.10
2023-03-06T21:31:34.637Z,94263.05
2023-03-06T21:34:05.038Z,94266.28
2023-03-06T21:36:34.113Z,94263.66
2023-03-06T21:39:03.922Z,94259.96
2023-03-06T21:41:32.690Z,94261.61
2023-03-06T21:44:03.646Z,94268.33
2023-03-06T21:46:32.574Z,94270.59
2023-03-06T21:49:04.106Z,94268.61
2023-03-06T21:51:32.375Z,94264.03
2023-03-06T21:54:00.696Z,94253.70
2023-03-06T21:56:29.183Z,94258.84
2023-03-06T21:58:58.418Z,94259.95
2023-03-06T22:01:29.063Z,94261.85
2023-03-06T22:03:58.757Z,94258.83
2023-03-06T22:06:28.955Z,94256.30
2023-03-06T22:08:59.627Z,94255.54
2023-03-06T22:11:31.419Z,94255.42
2023-03-06T22:13:59.903Z,94256.75
2023-03-06T22:16:28.747Z,94256.93
2023-03-06T22:18:57.258Z,94255.25
2023-03-06T22:21:25.875Z,94259.95
2023-03-06T22:23:59.544Z,94264.05
2023-03-06T22:26:29.499Z,94265.63
2023-03-06T22:28:57.720Z,94264.65
2023-03-06T22:31:28.684Z,94263.72
2023-03-06T22:33:59.695Z,94264.58
2023-03-06T22:36:30.594Z,94265.57
2023-03-06T22:39:00.925Z,94266.37
2023-03-06T22:41:29.222Z,94261.75
2023-03-06T22:43:58.652Z,94263.02
2023-03-06T22:46:28.037Z,94261.88
2023-03-06T22:48:57.715Z,94264.02
2023-03-06T22:51:27.549Z,94262.91
2023-03-06T22:53:55.760Z,94259.80
2023-03-06T22:56:24.645Z,94256.13
2023-03-06T22:58:52.769Z,94258.07
2023-03-06T23:01:25.217Z,94257.84
2023-03-06T23:03:56.079Z,94253.05
2023-03-06T23:06:30.311Z,94256.95
2023-03-06T23:09:14.837Z,94258.46
2023-03-06T23:12:02.100Z,94260.80
2023-03-06T23:14:51.317Z,94262.98
2023-03-06T23:17:38.208Z,94266.83
2023-03-06T23:20:25.398Z,94268.26
2023-03-06T23:23:12.277Z,94264.82
2023-03-06T23:25:44.208Z,94263.56
2023-03-06T23:28:12.661Z,94267.27
2023-03-06T23:30:41.751Z,94267.89
2023-03-06T23:33:10.517Z,94272.11
2023-03-06T23:35:41.666Z,94276.54
2023-03-06T23:38:09.875Z,94278.38
2023-03-06T23:40:39.453Z,94278.14
2023-03-06T23:43:07.941Z,94276.31
2023-03-06T23:45:36.701Z,94274.15
2023-03-06T23:48:07.530Z,94275.50
2023-03-06T23:50:35.690Z,94275.66
2023-03-06T23:53:03.867Z,94273.60
2023-03-06T23:55:32.270Z,94278.18
2023-03-06T23:58:00.356Z,94276.15
